This is the latest recevied weather packets stored in our database for station/object KF4CQ. If no packets are shown the sender has not sent any weather packets the latest 1 day(s).
| Time | Temp. | Humidity | Pressure | Rain* | Wind** | Luminosity | Snow |
|---|---|---|---|---|---|---|---|
| 1777993138 | 26.67° C | 67% | 1017.9 hPa | 0 mm | 1.79 m/s, 243° | 577 W/m² | - |
| 1777992837 | 26.67° C | 67% | 1018.1 hPa | 0 mm | 0.89 m/s, 145° | 560 W/m² | - |
| 1777992534 | 26.11° C | 70% | 1018.1 hPa | 0 mm | 0.45 m/s, 94° | 572 W/m² | - |
| 1777992233 | 26.11° C | 70% | 1017.9 hPa | 0 mm | 1.79 m/s, 51° | 521 W/m² | - |
| 1777991929 | 25.56° C | 71% | 1018.1 hPa | 0 mm | 0.45 m/s, 70° | 492 W/m² | - |
| 1777991627 | 25.56° C | 72% | 1017.9 hPa | 0 mm | 1.34 m/s, 39° | 495 W/m² | - |
| 1777991324 | 25.56° C | 73% | 1017.9 hPa | 0 mm | 0 m/s | 466 W/m² | - |
| 1777991021 | 25° C | 74% | 1017.8 hPa | 0 mm | 1.79 m/s, 163° | 472 W/m² | - |
| 1777990718 | 25.56° C | 73% | 1017.8 hPa | 0 mm | 1.34 m/s, 163° | 445 W/m² | - |
| 1777990416 | 25° C | 75% | 1017.7 hPa | 0 mm | 1.79 m/s, 68° | 431 W/m² | - |
| 1777990112 | 25.56° C | 74% | 1017.8 hPa | 0 mm | 0.89 m/s, 155° | 417 W/m² | - |
| 1777989809 | 25° C | 74% | 1017.7 hPa | 0 mm | 0 m/s | 397 W/m² | - |
| 1777989506 | 24.44° C | 76% | 1017.7 hPa | 0 mm | 0.89 m/s, 97° | 379 W/m² | - |
| 1777989202 | 24.44° C | 76% | 1017.8 hPa | 0 mm | 1.34 m/s, 93° | 335 W/m² | - |
| 1777988898 | 24.44° C | 77% | 1017.7 hPa | 0 mm | 0.89 m/s, 111° | 346 W/m² | - |
| 1777988595 | 23.89° C | 77% | 1017.7 hPa | 0 mm | 0 m/s | 322 W/m² | - |
| 1777988292 | 23.89° C | 77% | 1017.6 hPa | 0 mm | 1.34 m/s, 53° | 303 W/m² | - |
| 1777987989 | 23.89° C | 78% | 1017.9 hPa | 0 mm | 2.24 m/s, 134° | 277 W/m² | - |
| 1777987684 | 24.44° C | 76% | 1017.8 hPa | 0 mm | 1.34 m/s, 121° | 247 W/m² | - |
| 1777987382 | 25° C | 75% | 1017.9 hPa | 0 mm | 0.89 m/s, 93° | 230 W/m² | - |
| 1777987079 | 23.89° C | 76% | 1017.6 hPa | 0 mm | 0.89 m/s, 80° | 186 W/m² | - |
| 1777986776 | 23.89° C | 77% | 1017.8 hPa | 0 mm | 0.45 m/s, 71° | 155 W/m² | - |
| 1777986474 | 23.89° C | 76% | 1017.9 hPa | 0 mm | 1.34 m/s, 113° | 106 W/m² | - |
| 1777986172 | 23.89° C | 77% | 1017.7 hPa | 0 mm | 0 m/s | 92 W/m² | - |
| 1777985869 | 23.33° C | 78% | 1017.8 hPa | 0 mm | 0 m/s | 81 W/m² | - |
* Rain latest hour (hover to see other rain measurements)
** Current wind speed in m/s (hover to see current wind gust speed)